Terminal Aerodrome Forecast
Issued by NWS

Home | Current Version | Previous Version | Text Only | Print | Product List | Glossary On
Versions: 1 2 3 4 5 6 7 8 9 10 11 12 13 14 15
000
FTUS42 KTAE 021233 AAA
TAFDHN
TAF AMD
KDHN 021233Z 0213/0312 03006KT 3SM BR BKN003
      TEMPO 0213/0215 BKN015
     FM021500 02008KT P6SM SCT050
     FM030100 28003KT P6SM FEW050
     FM030800 00000KT 4SM BR SKC=

USA.gov is the U.S. government's official web portal to all federal, state and local government web resources and services.